Flight Track Log - Related Links

Times and Time Zones

All times are in EDT time to prevent confusion due to time zone crossing. See the UAL395 flight status page for this flight to view local times or setup timezone preferences in your user account.

Time Position Orientation Groundspeed Altitude Reporting Facility
EDT Latitude Longitude Course Direction KTS MPH feet Rate Location/Type
Fri 06:36:15 AM 29.5439 -98.4878 90° East 151 174 1,500  Level Houston Center
Fri 06:37:28 AM 29.5739 -98.5419 302° West 187 215 4,500 2,609 Climbing Houston Center
Fri 06:38:10 AM 29.5933 -98.5694 309° West 190 219 6,500 3,200 Climbing Houston Center
Fri 06:38:28 AM 29.6122 -98.5708 356° North 197 227 7,700 2,900 Climbing Houston Center
Fri 06:39:00 AM 29.6083 -98.1587 77° East  Level FlightAware Approximate
Fri 06:39:10 AM 29.6347 -98.5322 56° Northeast 223 257 9,400  Level Houston Center
Fri 06:40:00 AM 29.6241 -98.0797 77° East  Level FlightAware Approximate
Fri 06:40:10 AM 29.6336 -98.4361 91° East 305 351 10,800  Level Houston Center
Fri 06:41:00 AM 29.6500 -98.0085 90° East  Level FlightAware Approximate
Fri 06:41:11 AM 29.6392 -98.3122 87° East 386 444 12,000  Level Houston Center
Fri 06:42:11 AM 29.6431 -98.1750 88° East 426 490 16,100 3,322 Climbing Houston Center
Fri 06:43:12 AM 29.6475 -98.0281 88° East 458 527 18,700 2,331 Climbing Houston Center
Fri 06:44:12 AM 29.6436 -97.8744 92° East 478 550 20,800 1,750 Climbing Houston Center
Fri 06:45:12 AM 29.6356 -97.7286 94° East 500 575 22,200 1,091 Climbing Houston Center
Fri 06:46:13 AM 29.6275 -97.5700 93° East 501 577 23,000 397 Climbing Houston Center
Fri 06:47:13 AM 29.6194 -97.4272 94° East 453 521 23,000  Level Houston Center
Fri 06:48:13 AM 29.6117 -97.2875 94° East 440 506 23,000  Level Houston Center
Fri 06:49:14 AM 29.6047 -97.1478 93° East 438 504 23,000  Level Houston Center
Fri 06:50:14 AM 29.5967 -97.0061 94° East 440 506 23,000 -347 Level Houston Center
Fri 06:51:15 AM 29.5881 -96.8644 94° East 439 505 22,300 -1,537 Descending Houston Center
Fri 06:52:15 AM 29.5789 -96.7189 94° East 447 514 19,900 -2,149 Descending Houston Center
Fri 06:53:29 AM 29.5686 -96.5386 94° East 434 499 17,500 -1,934 Descending Houston Center
Fri 06:54:16 AM 29.5625 -96.4444 94° East 423 487 16,000 -1,963 Descending Houston Center
Fri 06:55:16 AM 29.5542 -96.3139 94° East 410 472 14,000 -1,884 Descending Houston Center
Fri 06:56:17 AM 29.5458 -96.1897 94° East 392 451 12,200 -1,289 Descending Houston Center
Fri 06:57:17 AM 29.5886 -96.0828 65° Northeast 378 435 11,400 -1,100 Descending Houston Center
Fri 06:58:17 AM 29.6386 -95.9833 60° Northeast 375 432 10,000 -1,280 Descending Houston Center
Fri 06:58:32 AM 29.6567 -95.9453 61° Northeast 350 403 9,800 -787 Descending Houston Center
Fri 06:59:18 AM 29.6844 -95.8917 59° Northeast 338 389 9,200 -1,273 Descending Houston Center
Fri 06:59:38 AM 29.7067 -95.8481 60° Northeast 308 354 8,400 -1,400 Descending Houston Center
Fri 07:00:18 AM 29.7261 -95.8058 62° Northeast 312 359 7,800 -1,082 Descending Houston Center
Fri 07:00:39 AM 29.7494 -95.7614 59° Northeast 313 360 7,300 -885 Descending Houston Center
Fri 07:01:19 AM 29.7700 -95.7200 60° Northeast 311 358 6,900 -896 Descending Houston Center
Fri 07:01:46 AM 29.7958 -95.6692 60° Northeast 301 346 6,300 -900 Descending Houston Center
Fri 07:02:19 AM 29.8117 -95.6381 60° Northeast 299 344 6,000 -300 Descending Houston Center
Fri 07:02:46 AM 29.8369 -95.5875 60° Northeast 286 329 6,000  Level Houston Center
Fri 07:03:20 AM 29.8514 -95.5586 60° Northeast 290 334 6,000  Level Houston Center
Fri 07:03:47 AM 29.8758 -95.5081 61° Northeast 289 333 6,000 -100 Level Houston Center
Fri 07:04:20 AM 29.8919 -95.4783 58° Northeast 289 333 5,900  Descending Houston Center
Fri 07:04:54 AM 29.8961 -95.4069 86° East 302 348 6,000 79 Climbing Houston Center
Fri 07:05:36 AM 29.8961 -95.3394 90° East 276 318 6,000 -414 Level Houston Center
Fri 07:06:21 AM 29.8967 -95.2936 89° East 283 326 5,400 -1,180 Descending Houston Center
Fri 07:06:37 AM 29.8972 -95.2575 89° East 241 277 4,800 -1,475 Descending Houston Center
Fri 07:07:22 AM 29.8967 -95.2172 91° East 248 285 3,900 -1,164 Descending Houston Center
Fri 07:07:44 AM 29.9094 -95.1858 65° Northeast 187 215 3,500 -1,200 Descending Houston Center
Fri 07:08:22 AM 29.9375 -95.1803 10° North 195 224 2,700 -1,279 Descending Houston Center
Fri 07:08:45 AM 29.9492 -95.1836 346° North 127 146 2,200 -1,082 Descending Houston Center
Fri 07:09:23 AM 29.9636 -95.2047 308° West 149 171 1,600 -667 Descending Houston Center
Fri 07:09:39 AM 29.9667 -95.2150 289° West 125 144 1,600  Level Houston Center

Login

Don't have an account? Register now (free) for customized features, flight alerts, and more!